Mocamedes, Namibe Airport (FNMO)

NameNamibe Airport
CityMocamedes
CountryAngola
ICAOFNMO
IATAMSZ
Altitude64 m
CoordinatesGoogle Map
Live Air TrafficLiveATC.net
METARFNMO 261500Z 27016KT 999 FEW025 28/20 Q1010
2020-02-26 15:00:00 Wind: West (270°) 8.23 m/s - Visibility: 2701 m - Temperature: 28 °C - Dew point: 20 °C - Humidity: 61.8% - Pressure: 1010 hPa

Sorry, no flights used the airport in this database.